createdAt,value
2019-04-21T00:01:48.968Z,5.58
2019-04-21T00:04:30.830Z,5.67
2019-04-21T00:07:11.725Z,5.97
2019-04-21T00:09:39.861Z,5.58
2019-04-21T00:12:12.406Z,6.08
2019-04-21T00:14:34.994Z,5.78
2019-04-21T00:17:00.613Z,5.55
2019-04-21T00:19:28.800Z,5.65
2019-04-21T00:22:08.574Z,5.67
2019-04-21T00:24:41.240Z,5.87
2019-04-21T00:27:18.814Z,5.90
2019-04-21T00:29:50.164Z,5.97
2019-04-21T00:32:14.569Z,5.67
2019-04-21T00:34:32.481Z,5.50
2019-04-21T00:37:12.078Z,5.92
2019-04-21T00:40:01.952Z,5.78
2019-04-21T00:42:25.661Z,6.45
2019-04-21T00:44:56.582Z,5.92
2019-04-21T00:47:30.593Z,5.60
2019-04-21T00:50:00.774Z,6.10
2019-04-21T00:57:53.446Z,5.90
2019-04-21T01:00:20.245Z,6.22
2019-04-21T01:02:56.158Z,5.72
2019-04-21T01:05:23.963Z,5.58
2019-04-21T01:07:50.356Z,5.90
2019-04-21T01:10:16.150Z,5.97
2019-04-21T01:12:54.709Z,5.65
2019-04-21T01:17:59.351Z,5.47
2019-04-21T01:20:16.863Z,5.50
2019-04-21T01:22:41.399Z,5.75
2019-04-21T01:25:19.923Z,5.70
2019-04-21T01:27:59.320Z,5.53
2019-04-21T01:30:34.494Z,5.50
2019-04-21T01:33:08.962Z,5.65
2019-04-21T01:35:40.341Z,5.45
2019-04-21T01:38:08.226Z,5.75
2019-04-21T01:40:41.125Z,5.55
2019-04-21T01:43:07.610Z,5.83
2019-04-21T01:45:37.042Z,5.28
2019-04-21T01:48:13.100Z,6.30
2019-04-21T01:50:41.128Z,5.60
2019-04-21T01:53:25.585Z,5.87
2019-04-21T01:55:48.178Z,5.87
2019-04-21T01:58:19.439Z,5.92
2019-04-21T02:01:09.909Z,5.55
2019-04-21T02:06:18.063Z,5.45
2019-04-21T02:08:44.808Z,5.78
2019-04-21T02:11:23.050Z,5.90
2019-04-21T02:13:57.256Z,5.67
2019-04-21T02:16:22.770Z,5.35
2019-04-21T02:18:49.950Z,5.60
2019-04-21T02:21:17.860Z,5.60
2019-04-21T02:24:00.560Z,5.47
2019-04-21T02:26:32.408Z,5.75
2019-04-21T02:29:02.003Z,5.37
2019-04-21T02:31:55.419Z,5.92
2019-04-21T02:34:06.816Z,5.85
2019-04-21T02:41:51.648Z,5.85
2019-04-21T02:44:18.449Z,5.95
2019-04-21T02:46:42.166Z,5.87
2019-04-21T02:49:31.137Z,5.62
2019-04-21T02:54:41.723Z,5.35
2019-04-21T02:57:09.297Z,5.97
2019-04-21T02:59:33.758Z,5.50
2019-04-21T03:04:42.551Z,5.83
2019-04-21T03:07:34.428Z,5.72
2019-04-21T03:09:53.094Z,5.35
2019-04-21T03:12:22.171Z,5.78
2019-04-21T03:15:15.995Z,5.45
2019-04-21T03:17:32.444Z,5.67
2019-04-21T03:20:03.081Z,5.83
2019-04-21T03:22:32.393Z,5.80
2019-04-21T03:27:40.133Z,5.87
2019-04-21T03:30:33.281Z,6.17
2019-04-21T03:32:50.619Z,6.10
2019-04-21T03:40:06.867Z,5.62
2019-04-21T03:42:43.127Z,6.05
2019-04-21T03:45:14.949Z,5.72
2019-04-21T03:48:04.707Z,5.87
2019-04-21T03:50:15.599Z,6.17
2019-04-21T03:52:53.293Z,5.87
2019-04-21T03:55:48.801Z,5.78
2019-04-21T04:03:44.262Z,5.83
2019-04-21T04:06:05.532Z,5.62
2019-04-21T04:11:14.840Z,5.75
2019-04-21T04:13:53.350Z,5.10
2019-04-21T04:16:10.116Z,5.60
2019-04-21T04:23:45.603Z,6.03
2019-04-21T04:26:13.344Z,7.17
2019-04-21T04:29:05.944Z,7.37
2019-04-21T04:31:41.724Z,7.33
2019-04-21T04:34:16.201Z,7.78
2019-04-21T04:39:36.611Z,7.30
2019-04-21T04:42:03.571Z,7.20
2019-04-21T04:44:50.033Z,7.53
2019-04-21T04:47:07.349Z,7.35
2019-04-21T04:57:13.830Z,7.97
2019-04-21T05:04:46.228Z,7.67
2019-04-21T05:07:13.867Z,8.08
2019-04-21T05:09:41.244Z,7.85
2019-04-21T05:12:27.117Z,7.40
2019-04-21T05:14:48.371Z,7.55
2019-04-21T05:17:24.933Z,7.22
2019-04-21T05:19:57.419Z,7.55
2019-04-21T05:24:38.571Z,7.70
2019-04-21T05:27:08.666Z,6.85
2019-04-21T05:29:54.991Z,8.10
2019-04-21T05:32:29.791Z,8.40
2019-04-21T05:34:55.807Z,8.50
2019-04-21T05:37:35.175Z,7.97
2019-04-21T05:40:00.754Z,7.60
2019-04-21T05:42:35.990Z,7.53
2019-04-21T05:45:18.514Z,7.35
2019-04-21T05:47:48.152Z,7.10
2019-04-21T05:50:20.515Z,7.33
2019-04-21T05:52:51.614Z,7.03
2019-04-21T05:55:34.224Z,7.45
2019-04-21T05:57:59.283Z,7.28
2019-04-21T06:00:55.929Z,7.60
2019-04-21T06:05:47.850Z,6.97
2019-04-21T06:08:13.342Z,8.33
2019-04-21T06:10:47.748Z,8.65
2019-04-21T06:13:18.717Z,11.43
2019-04-21T06:15:54.685Z,11.60
2019-04-21T06:18:20.163Z,9.93
2019-04-21T06:20:51.151Z,7.72
2019-04-21T06:23:21.018Z,8.95
2019-04-21T06:26:12.217Z,8.98
2019-04-21T06:28:30.551Z,7.97
2019-04-21T06:31:00.307Z,7.58
2019-04-21T06:33:32.255Z,15.32
2019-04-21T06:39:01.782Z,12.58
2019-04-21T06:41:21.533Z,11.63
2019-04-21T06:43:56.573Z,9.50
2019-04-21T06:46:26.450Z,8.28
2019-04-21T06:48:55.532Z,8.05
2019-04-21T06:51:27.210Z,11.22
2019-04-21T06:53:59.642Z,14.23
2019-04-21T06:56:33.300Z,10.40
2019-04-21T06:58:57.917Z,11.20
2019-04-21T07:01:34.641Z,8.63
2019-04-21T07:06:35.728Z,7.37
2019-04-21T07:09:23.782Z,7.15
2019-04-21T07:11:34.969Z,7.28
2019-04-21T07:14:19.569Z,6.90
2019-04-21T07:16:41.523Z,6.33
2019-04-21T07:19:17.574Z,7.47
2019-04-21T07:21:38.715Z,7.97
2019-04-21T07:24:13.884Z,8.98
2019-04-21T07:26:45.899Z,7.55
2019-04-21T07:29:15.803Z,8.18
2019-04-21T07:34:22.674Z,7.22
2019-04-21T07:36:52.164Z,15.32
2019-04-21T07:39:10.324Z,8.85
2019-04-21T07:41:43.802Z,8.30
2019-04-21T07:44:15.079Z,7.47
2019-04-21T07:46:43.125Z,7.75
2019-04-21T07:49:39.660Z,7.50
2019-04-21T07:52:28.370Z,7.17
2019-04-21T07:55:12.947Z,7.65
2019-04-21T07:57:26.046Z,9.30
2019-04-21T08:00:15.056Z,8.53
2019-04-21T08:02:38.633Z,8.83
2019-04-21T08:05:19.945Z,8.20
2019-04-21T08:07:49.351Z,8.08
2019-04-21T08:10:06.357Z,7.08
2019-04-21T08:12:30.656Z,7.17
2019-04-21T08:15:15.491Z,7.45
2019-04-21T08:17:45.721Z,7.87
2019-04-21T08:20:07.730Z,8.23
2019-04-21T08:22:46.791Z,9.40
2019-04-21T08:25:17.884Z,8.75
2019-04-21T08:27:52.148Z,8.80
2019-04-21T08:30:20.997Z,7.10
2019-04-21T08:33:00.870Z,7.35
2019-04-21T08:37:48.120Z,7.20
2019-04-21T08:40:27.402Z,7.20
2019-04-21T08:42:54.023Z,7.83
2019-04-21T08:45:28.247Z,6.85
2019-04-21T08:48:00.395Z,6.95
2019-04-21T08:50:25.648Z,6.85
2019-04-21T08:53:00.776Z,6.42
2019-04-21T08:55:42.894Z,6.40
2019-04-21T09:01:00.904Z,6.45
2019-04-21T09:03:51.962Z,6.60
2019-04-21T09:08:52.298Z,6.20
2019-04-21T09:11:22.074Z,6.20
2019-04-21T09:13:55.839Z,6.10
2019-04-21T09:16:27.772Z,6.35
2019-04-21T09:18:52.792Z,9.35
2019-04-21T09:21:31.528Z,7.65
2019-04-21T09:23:56.453Z,7.92
2019-04-21T09:26:29.448Z,8.55
2019-04-21T09:28:54.505Z,8.08
2019-04-21T09:31:17.955Z,9.40
2019-04-21T09:33:50.846Z,8.58
2019-04-21T09:36:21.185Z,8.00
2019-04-21T09:38:56.110Z,7.55
2019-04-21T09:41:23.772Z,7.37
2019-04-21T09:43:54.020Z,7.85
2019-04-21T09:46:23.219Z,7.45
2019-04-21T09:48:59.110Z,7.80
2019-04-21T09:51:23.796Z,8.28
2019-04-21T09:54:01.118Z,7.20
2019-04-21T09:56:36.106Z,7.45
2019-04-21T09:59:04.062Z,7.20
2019-04-21T10:01:38.957Z,6.72
2019-04-21T10:04:01.658Z,7.40
2019-04-21T10:06:29.079Z,7.55
2019-04-21T10:09:04.176Z,6.97
2019-04-21T10:11:33.283Z,8.68
2019-04-21T10:14:03.337Z,7.97
2019-04-21T10:16:44.938Z,9.03
2019-04-21T10:19:15.298Z,8.20
2019-04-21T10:21:44.942Z,8.38
2019-04-21T10:24:15.845Z,7.75
2019-04-21T10:26:45.554Z,8.23
2019-04-21T10:29:22.121Z,10.00
2019-04-21T10:31:46.855Z,9.75
2019-04-21T10:34:17.508Z,9.75
2019-04-21T10:36:47.131Z,10.82
2019-04-21T10:39:17.825Z,10.25
2019-04-21T10:41:47.766Z,10.60
2019-04-21T10:44:18.745Z,10.50
2019-04-21T10:46:50.316Z,9.83
2019-04-21T10:49:22.410Z,9.45
2019-04-21T10:51:52.966Z,9.30
2019-04-21T10:54:24.052Z,9.55
2019-04-21T10:56:54.667Z,9.73
2019-04-21T10:59:25.040Z,9.88
2019-04-21T11:01:54.915Z,9.43
2019-04-21T11:04:31.335Z,9.48
2019-04-21T11:07:07.064Z,9.23
2019-04-21T11:09:29.893Z,9.60
2019-04-21T11:11:59.886Z,9.43
2019-04-21T11:14:29.597Z,9.15
2019-04-21T11:17:00.430Z,10.65
2019-04-21T11:19:30.727Z,9.65
2019-04-21T11:22:01.034Z,8.78
2019-04-21T11:24:33.121Z,9.50
2019-04-21T11:27:02.845Z,10.40
2019-04-21T11:29:33.076Z,10.98
2019-04-21T11:32:03.050Z,10.38
2019-04-21T11:34:33.476Z,11.38
2019-04-21T11:37:06.025Z,11.55
2019-04-21T11:39:46.046Z,10.98
2019-04-21T11:42:09.958Z,9.65
2019-04-21T11:44:45.024Z,10.88
2019-04-21T11:47:22.714Z,10.63
2019-04-21T11:49:52.878Z,9.88
2019-04-21T11:52:23.149Z,9.58
2019-04-21T11:54:53.145Z,9.63
2019-04-21T11:57:27.856Z,9.98
2019-04-21T11:59:53.887Z,9.95
2019-04-21T12:02:23.607Z,10.03
2019-04-21T12:04:54.182Z,10.23
2019-04-21T12:07:25.041Z,9.70
2019-04-21T12:09:55.488Z,9.75
2019-04-21T12:12:27.487Z,9.70
2019-04-21T12:14:57.649Z,9.78
2019-04-21T12:17:27.966Z,9.63
2019-04-21T12:19:58.715Z,9.33
2019-04-21T12:22:31.977Z,9.00
2019-04-21T12:25:00.768Z,9.03
2019-04-21T12:27:31.889Z,9.10
2019-04-21T12:30:03.833Z,10.25
2019-04-21T12:32:51.815Z,9.10
2019-04-21T12:35:21.906Z,9.50
2019-04-21T12:37:53.106Z,9.48
2019-04-21T12:40:24.236Z,8.58
2019-04-21T12:42:54.865Z,9.03
2019-04-21T12:45:26.019Z,8.40
2019-04-21T12:47:55.817Z,8.05
2019-04-21T12:50:25.938Z,8.68
2019-04-21T12:52:55.834Z,8.68
2019-04-21T12:55:30.733Z,8.45
2019-04-21T12:57:57.286Z,9.08
2019-04-21T13:00:27.254Z,9.58
2019-04-21T13:02:58.055Z,8.73
2019-04-21T13:05:27.735Z,8.90
2019-04-21T13:07:57.507Z,8.40
2019-04-21T13:10:28.339Z,8.25
2019-04-21T13:12:57.883Z,8.60
2019-04-21T13:15:27.398Z,8.80
2019-04-21T13:17:58.412Z,8.33
2019-04-21T13:20:29.436Z,7.95
2019-04-21T13:22:59.764Z,8.58
2019-04-21T13:25:29.747Z,8.15
2019-04-21T13:28:00.753Z,8.35
2019-04-21T13:30:30.778Z,8.43
2019-04-21T13:33:00.862Z,8.95
2019-04-21T13:35:30.981Z,8.53
2019-04-21T13:38:00.776Z,8.80
2019-04-21T13:41:02.078Z,8.68
2019-04-21T13:43:18.986Z,8.10
2019-04-21T13:45:49.831Z,8.13
2019-04-21T13:48:19.758Z,7.95
2019-04-21T13:50:49.291Z,7.40
2019-04-21T13:53:20.905Z,6.92
2019-04-21T13:55:50.955Z,6.72
2019-04-21T13:58:20.487Z,6.87
2019-04-21T14:00:50.552Z,7.55
2019-04-21T14:03:23.072Z,7.40
2019-04-21T14:05:52.336Z,6.42
2019-04-21T14:08:25.156Z,7.35
2019-04-21T14:10:55.639Z,7.25
2019-04-21T14:13:26.730Z,6.65
2019-04-21T14:15:57.846Z,6.72
2019-04-21T14:18:28.879Z,6.65
2019-04-21T14:21:03.110Z,7.00
2019-04-21T14:23:38.585Z,7.55
2019-04-21T14:26:04.574Z,7.00
2019-04-21T14:28:34.170Z,7.12
2019-04-21T14:31:04.269Z,6.90
2019-04-21T14:33:34.222Z,7.70
2019-04-21T14:36:05.207Z,7.35
2019-04-21T14:38:36.525Z,7.80
2019-04-21T14:41:06.249Z,8.33
2019-04-21T14:43:36.207Z,8.10
2019-04-21T14:46:08.908Z,7.10
2019-04-21T14:48:57.187Z,6.67
2019-04-21T14:51:38.846Z,7.20
2019-04-21T14:54:22.596Z,7.28
2019-04-21T14:57:11.495Z,7.40
2019-04-21T14:59:41.018Z,7.53
2019-04-21T15:02:11.654Z,8.48
2019-04-21T15:04:41.727Z,8.10
2019-04-21T15:07:12.858Z,7.03
2019-04-21T15:09:44.517Z,7.22
2019-04-21T15:12:14.081Z,6.87
2019-04-21T15:14:44.150Z,7.03
2019-04-21T15:17:16.336Z,6.78
2019-04-21T15:19:54.057Z,6.95
2019-04-21T15:22:16.474Z,6.83
2019-04-21T15:24:46.217Z,7.22
2019-04-21T15:27:16.814Z,6.78
2019-04-21T15:29:46.895Z,7.62
2019-04-21T15:32:16.887Z,6.78
2019-04-21T15:34:47.853Z,6.67
2019-04-21T15:37:17.901Z,7.28
2019-04-21T15:39:48.756Z,6.42
2019-04-21T15:42:18.646Z,6.55
2019-04-21T15:44:48.479Z,6.65
2019-04-21T15:47:17.984Z,6.60
2019-04-21T15:50:01.171Z,6.58
2019-04-21T15:52:26.016Z,6.37
2019-04-21T15:54:58.857Z,5.90
2019-04-21T15:57:40.422Z,5.95
2019-04-21T16:00:31.342Z,5.75
2019-04-21T16:03:00.778Z,5.95
2019-04-21T16:05:30.837Z,5.90
2019-04-21T16:08:00.470Z,5.20
2019-04-21T16:10:37.638Z,5.65
2019-04-21T16:13:01.589Z,5.40
2019-04-21T16:15:32.486Z,5.10
2019-04-21T16:18:03.423Z,4.75
2019-04-21T16:20:33.258Z,4.70
2019-04-21T16:23:04.460Z,4.80
2019-04-21T16:25:34.818Z,4.53
2019-04-21T16:28:05.584Z,4.90
2019-04-21T16:30:36.213Z,4.33
2019-04-21T16:33:06.083Z,4.47
2019-04-21T16:35:35.759Z,4.78
2019-04-21T16:38:06.038Z,4.95
2019-04-21T16:40:48.164Z,4.70
2019-04-21T16:43:07.989Z,4.37
2019-04-21T16:45:39.126Z,4.37
2019-04-21T16:48:09.489Z,4.70
2019-04-21T16:50:39.526Z,4.67
2019-04-21T16:53:20.018Z,4.72
2019-04-21T16:55:51.456Z,5.10
2019-04-21T16:58:32.598Z,4.70
2019-04-21T17:01:14.885Z,4.53
2019-04-21T17:03:42.461Z,4.25
2019-04-21T17:06:13.237Z,4.15
2019-04-21T17:08:43.087Z,4.50
2019-04-21T17:11:19.392Z,4.50
2019-04-21T17:13:45.662Z,4.45
2019-04-21T17:16:43.507Z,4.15
2019-04-21T17:18:58.799Z,4.55
2019-04-21T17:21:17.497Z,4.50
2019-04-21T17:23:48.217Z,4.90
2019-04-21T17:26:19.264Z,4.97
2019-04-21T17:28:49.011Z,4.85
2019-04-21T17:31:39.172Z,4.75
2019-04-21T17:34:15.696Z,4.65
2019-04-21T17:36:41.134Z,4.90
2019-04-21T17:39:11.202Z,4.85
2019-04-21T17:41:55.988Z,4.92
2019-04-21T17:44:12.519Z,4.60
2019-04-21T17:46:50.020Z,5.08
2019-04-21T17:49:14.885Z,5.50
2019-04-21T17:51:52.511Z,5.25
2019-04-21T17:54:31.602Z,5.58
2019-04-21T18:02:23.277Z,4.95
2019-04-21T18:04:49.354Z,4.65
2019-04-21T18:07:26.242Z,4.47
2019-04-21T18:10:00.249Z,4.78
2019-04-21T18:14:55.524Z,4.95
2019-04-21T18:17:16.229Z,4.55
2019-04-21T18:19:47.933Z,4.72
2019-04-21T18:22:34.784Z,4.50
2019-04-21T18:25:06.760Z,10.98
2019-04-21T18:27:32.545Z,7.75
2019-04-21T18:30:06.328Z,8.30
2019-04-21T18:32:39.755Z,10.13
2019-04-21T18:35:13.255Z,24.72
2019-04-21T18:37:51.638Z,14.65
2019-04-21T18:40:25.603Z,6.50
2019-04-21T18:43:27.506Z,5.33
2019-04-21T18:46:00.762Z,6.80
2019-04-21T18:48:19.144Z,5.50
2019-04-21T18:50:50.941Z,4.97
2019-04-21T18:53:41.587Z,4.75
2019-04-21T18:56:03.912Z,4.62
2019-04-21T18:58:30.670Z,4.67
2019-04-21T19:01:09.339Z,5.92
2019-04-21T19:03:39.891Z,19.60
2019-04-21T19:06:10.810Z,16.87
2019-04-21T19:08:53.647Z,11.22
2019-04-21T19:11:25.158Z,14.80
2019-04-21T19:14:28.569Z,16.87
2019-04-21T19:16:50.986Z,6.50
2019-04-21T19:21:46.968Z,9.15
2019-04-21T19:24:27.532Z,10.60
2019-04-21T19:29:28.885Z,6.72
2019-04-21T19:31:54.788Z,7.08
2019-04-21T19:34:14.431Z,6.42
2019-04-21T19:36:46.686Z,6.17
2019-04-21T19:39:18.607Z,5.58
2019-04-21T19:41:57.576Z,5.00
2019-04-21T19:44:34.068Z,5.40
2019-04-21T19:47:08.411Z,4.97
2019-04-21T19:49:39.952Z,5.35
2019-04-21T19:51:58.749Z,4.90
2019-04-21T19:54:25.091Z,5.05
2019-04-21T19:56:49.446Z,5.53
2019-04-21T19:59:31.895Z,10.93
2019-04-21T20:01:51.366Z,7.40
2019-04-21T20:04:31.881Z,7.95
2019-04-21T20:07:02.921Z,6.05
2019-04-21T20:09:40.702Z,4.92
2019-04-21T20:12:09.607Z,5.78
2019-04-21T20:15:04.919Z,6.50
2019-04-21T20:19:32.039Z,6.05
2019-04-21T20:22:03.149Z,6.20
2019-04-21T20:24:35.728Z,5.78
2019-04-21T20:27:10.052Z,6.35
2019-04-21T20:29:57.874Z,6.10
2019-04-21T20:35:00.872Z,6.33
2019-04-21T20:37:26.474Z,6.00
2019-04-21T20:39:47.304Z,6.00
2019-04-21T20:42:23.706Z,6.08
2019-04-21T20:45:16.686Z,5.83
2019-04-21T20:47:22.832Z,5.85
2019-04-21T20:49:59.798Z,6.58
2019-04-21T20:52:35.350Z,6.15
2019-04-21T20:55:02.230Z,6.15
2019-04-21T20:57:32.771Z,6.42
2019-04-21T21:00:07.442Z,7.55
2019-04-21T21:02:44.731Z,7.65
2019-04-21T21:05:00.351Z,6.87
2019-04-21T21:07:44.377Z,6.53
2019-04-21T21:10:12.249Z,6.83
2019-04-21T21:12:51.256Z,7.22
2019-04-21T21:15:07.908Z,6.37
2019-04-21T21:17:53.893Z,5.60
2019-04-21T21:20:20.921Z,5.55
2019-04-21T21:22:48.141Z,7.20
2019-04-21T21:25:29.215Z,6.60
2019-04-21T21:27:47.026Z,7.17
2019-04-21T21:30:18.634Z,5.60
2019-04-21T21:32:54.421Z,5.20
2019-04-21T21:35:21.443Z,5.30
2019-04-21T21:38:03.523Z,4.97
2019-04-21T21:40:30.426Z,4.70
2019-04-21T21:42:45.288Z,4.90
2019-04-21T21:45:18.357Z,4.55
2019-04-21T21:48:00.709Z,4.53
2019-04-21T21:50:26.063Z,5.00
2019-04-21T21:52:59.891Z,4.58
2019-04-21T21:55:21.489Z,4.42
2019-04-21T21:57:55.322Z,4.85
2019-04-21T22:00:26.295Z,5.03
2019-04-21T22:03:03.529Z,4.97
2019-04-21T22:05:32.770Z,4.67
2019-04-21T22:08:00.541Z,5.00
2019-04-21T22:10:31.415Z,4.95
2019-04-21T22:13:08.262Z,5.22
2019-04-21T22:15:33.799Z,5.30
2019-04-21T22:18:27.312Z,4.45
2019-04-21T22:20:53.741Z,4.92
2019-04-21T22:23:11.291Z,4.80
2019-04-21T22:25:41.256Z,4.60
2019-04-21T22:28:09.658Z,4.75
2019-04-21T22:30:44.721Z,5.30
2019-04-21T22:33:14.173Z,5.15
2019-04-21T22:35:46.317Z,5.20
2019-04-21T22:38:28.304Z,4.78
2019-04-21T22:40:58.007Z,13.55
2019-04-21T22:43:24.487Z,16.65
2019-04-21T22:45:47.308Z,5.70
2019-04-21T22:48:21.006Z,4.62
2019-04-21T22:50:48.560Z,4.80
2019-04-21T22:53:21.439Z,4.58
2019-04-21T22:56:00.360Z,5.05
2019-04-21T22:58:28.301Z,4.67
2019-04-21T23:00:56.909Z,4.50
2019-04-21T23:03:27.035Z,4.42
2019-04-21T23:06:02.880Z,4.40
2019-04-21T23:08:34.412Z,4.67
2019-04-21T23:11:03.486Z,4.40
2019-04-21T23:13:30.922Z,4.45
2019-04-21T23:16:03.150Z,4.10
2019-04-21T23:18:48.000Z,4.40
2019-04-21T23:21:16.277Z,4.37
2019-04-21T23:23:57.183Z,4.00
2019-04-21T23:26:29.725Z,4.45
2019-04-21T23:28:56.844Z,4.33
2019-04-21T23:31:29.085Z,4.53
2019-04-21T23:33:42.179Z,4.60
2019-04-21T23:36:17.231Z,4.10
2019-04-21T23:38:47.507Z,4.28
2019-04-21T23:41:15.304Z,4.17
2019-04-21T23:43:53.163Z,4.65
2019-04-21T23:46:20.235Z,4.53
2019-04-21T23:49:02.466Z,4.40
2019-04-21T23:51:30.188Z,4.40
2019-04-21T23:53:51.145Z,4.12
2019-04-21T23:56:27.889Z,4.67
2019-04-21T23:58:57.945Z,4.50
